createdAt,value
2022-12-31T12:45:52.048Z,2.13
2022-12-31T12:50:46.907Z,1.55
2022-12-31T12:53:22.995Z,2.38
2022-12-31T12:55:58.014Z,1.90
2022-12-31T12:58:42.800Z,2.08
2022-12-31T13:01:27.997Z,2.25
2022-12-31T13:06:58.736Z,1.83
2022-12-31T13:09:34.035Z,1.70
2022-12-31T13:12:20.578Z,1.60
2022-12-31T13:14:46.792Z,3.20
2022-12-31T13:17:18.867Z,1.77
2022-12-31T13:19:45.133Z,2.38
2022-12-31T13:22:16.568Z,1.60
2022-12-31T13:24:42.804Z,2.00
2022-12-31T13:27:11.943Z,1.95
2022-12-31T13:29:39.551Z,2.30
2022-12-31T13:32:07.791Z,2.00
2022-12-31T13:34:35.438Z,2.10
2022-12-31T13:37:06.778Z,2.00
2022-12-31T13:39:37.732Z,2.65
2022-12-31T13:42:18.193Z,3.00
2022-12-31T13:44:56.107Z,2.67
2022-12-31T13:47:22.325Z,2.08
2022-12-31T13:49:54.597Z,2.13
2022-12-31T13:52:33.080Z,1.92
2022-12-31T13:55:17.437Z,2.13
2022-12-31T13:57:45.980Z,2.40
2022-12-31T14:00:26.508Z,2.47
2022-12-31T14:05:23.153Z,3.17
2022-12-31T14:07:53.701Z,2.75
2022-12-31T14:12:46.142Z,4.63
2022-12-31T14:15:12.399Z,4.90
2022-12-31T14:17:49.866Z,2.90
2022-12-31T14:20:16.120Z,4.03
2022-12-31T14:22:51.504Z,1.88
2022-12-31T14:25:21.312Z,2.10
2022-12-31T14:27:48.110Z,4.55
2022-12-31T14:30:21.738Z,2.80
2022-12-31T14:33:20.367Z,3.28
2022-12-31T14:35:52.799Z,4.10
2022-12-31T14:38:19.369Z,2.22
2022-12-31T14:40:53.248Z,3.08
2022-12-31T14:43:36.584Z,2.22
2022-12-31T14:46:18.513Z,2.00
2022-12-31T14:48:49.308Z,3.00
2022-12-31T14:51:15.821Z,4.25
2022-12-31T14:53:51.143Z,7.10
2022-12-31T14:56:36.016Z,5.30
2022-12-31T14:59:02.715Z,5.55
2022-12-31T15:01:29.651Z,3.20
2022-12-31T15:03:57.881Z,3.60
2022-12-31T15:06:24.159Z,4.32
2022-12-31T15:09:08.300Z,8.55
2022-12-31T15:11:46.035Z,10.30
2022-12-31T15:14:18.075Z,6.70
2022-12-31T15:16:47.109Z,6.22
2022-12-31T15:19:26.101Z,5.70
2022-12-31T15:21:58.412Z,5.95
2022-12-31T15:24:26.887Z,8.05
2022-12-31T15:26:54.637Z,15.25
2022-12-31T15:29:28.592Z,3.50
2022-12-31T15:31:55.356Z,14.50
2022-12-31T15:34:26.591Z,3.78
2022-12-31T15:36:57.347Z,21.98
2022-12-31T15:39:25.394Z,4.22
2022-12-31T15:42:36.375Z,5.13
2022-12-31T15:44:49.917Z,5.40
2022-12-31T15:47:19.841Z,6.45
2022-12-31T15:49:47.221Z,4.88
2022-12-31T15:52:14.764Z,3.75
2022-12-31T15:54:42.426Z,4.70
2022-12-31T15:57:14.356Z,4.13
2022-12-31T15:59:40.709Z,9.27
2022-12-31T16:02:17.720Z,9.05
2022-12-31T16:04:44.382Z,6.05
2022-12-31T16:07:11.353Z,5.88
2022-12-31T16:09:37.824Z,4.00
2022-12-31T16:12:09.960Z,4.30
2022-12-31T16:14:43.625Z,8.50
2022-12-31T16:17:25.197Z,4.97
2022-12-31T16:19:51.687Z,4.82
2022-12-31T16:22:23.540Z,5.28
2022-12-31T16:30:19.691Z,3.30
2022-12-31T16:32:46.948Z,3.05
2022-12-31T16:35:24.118Z,3.75
2022-12-31T16:38:08.745Z,3.42
2022-12-31T16:40:35.313Z,3.97
2022-12-31T16:43:01.622Z,3.47
2022-12-31T16:45:30.464Z,3.55
2022-12-31T16:47:58.697Z,5.05
2022-12-31T16:50:25.790Z,5.13
2022-12-31T16:52:57.708Z,4.63
2022-12-31T16:55:25.854Z,6.07
2022-12-31T16:57:55.586Z,6.97
2022-12-31T17:00:23.830Z,6.80
2022-12-31T17:03:03.352Z,6.97
2022-12-31T17:05:29.847Z,6.47
2022-12-31T17:07:56.083Z,7.03
2022-12-31T17:10:26.275Z,5.50
2022-12-31T17:18:16.936Z,7.28
2022-12-31T17:20:43.254Z,4.25
2022-12-31T17:23:09.804Z,4.20
2022-12-31T17:25:37.077Z,4.63
2022-12-31T17:28:21.575Z,4.70
2022-12-31T17:30:48.238Z,4.40
2022-12-31T17:33:14.448Z,5.68
2022-12-31T17:35:42.447Z,4.35
2022-12-31T17:38:17.911Z,5.32
2022-12-31T17:40:52.848Z,10.27
2022-12-31T17:43:20.976Z,4.95
2022-12-31T17:45:47.796Z,5.05
2022-12-31T17:48:15.637Z,4.60
2022-12-31T17:50:48.632Z,4.72
2022-12-31T17:53:15.114Z,4.80
2022-12-31T17:55:42.115Z,4.32
2022-12-31T17:58:13.489Z,4.70
2022-12-31T18:00:39.853Z,6.20
2022-12-31T18:03:06.220Z,5.82
2022-12-31T18:05:32.602Z,6.13
2022-12-31T18:07:58.901Z,5.35
2022-12-31T18:10:26.032Z,10.52
2022-12-31T18:12:52.304Z,4.32
2022-12-31T18:15:22.908Z,5.65
2022-12-31T18:17:49.247Z,5.60
2022-12-31T18:20:15.760Z,5.13
2022-12-31T18:22:42.632Z,5.20
2022-12-31T18:25:26.771Z,5.53
2022-12-31T18:27:53.075Z,5.35
2022-12-31T18:30:19.375Z,4.93
2022-12-31T18:32:45.942Z,5.38
2022-12-31T18:35:33.348Z,4.82
2022-12-31T18:38:02.761Z,3.80
2022-12-31T18:40:29.140Z,4.40
2022-12-31T18:42:58.454Z,4.07
2022-12-31T18:45:29.079Z,4.13
2022-12-31T18:47:55.360Z,3.75
2022-12-31T18:50:21.640Z,4.28
2022-12-31T18:52:47.919Z,12.52
2022-12-31T18:55:30.959Z,5.35
2022-12-31T18:57:57.283Z,9.82
2022-12-31T19:00:23.569Z,36.22
2022-12-31T19:02:49.868Z,4.38
2022-12-31T19:05:20.844Z,11.75
2022-12-31T19:07:47.097Z,5.45
2022-12-31T19:10:13.791Z,7.53
2022-12-31T19:12:40.085Z,5.25
2022-12-31T19:15:15.736Z,3.95
2022-12-31T19:17:42.057Z,4.47
2022-12-31T19:20:08.778Z,6.15
2022-12-31T19:22:35.011Z,3.92
2022-12-31T19:25:01.253Z,5.13
2022-12-31T19:27:27.555Z,3.35
2022-12-31T19:29:53.896Z,3.65
2022-12-31T19:32:20.188Z,4.38
2022-12-31T19:34:46.433Z,3.65
2022-12-31T19:37:15.148Z,4.18
2022-12-31T19:39:41.412Z,4.13
2022-12-31T19:42:11.151Z,9.90
2022-12-31T19:44:37.397Z,3.83
2022-12-31T19:47:03.660Z,4.72
2022-12-31T19:49:29.960Z,5.65
2022-12-31T19:51:56.253Z,8.98
2022-12-31T19:54:22.552Z,8.23
2022-12-31T19:56:48.947Z,6.63
2022-12-31T19:59:15.184Z,9.70
2022-12-31T20:01:41.542Z,6.63
2022-12-31T20:04:07.935Z,7.18
2022-12-31T20:06:34.188Z,6.45
2022-12-31T20:09:00.646Z,8.77
2022-12-31T20:11:27.357Z,5.13
2022-12-31T20:13:53.951Z,5.60
2022-12-31T20:16:21.341Z,6.00
2022-12-31T20:18:48.385Z,5.30
2022-12-31T20:21:19.397Z,11.27
2022-12-31T20:23:46.063Z,9.48
2022-12-31T20:26:12.499Z,5.03
2022-12-31T20:28:38.910Z,5.15
2022-12-31T20:31:08.740Z,6.97
2022-12-31T20:33:35.128Z,6.25
2022-12-31T20:36:03.060Z,5.97
2022-12-31T20:38:29.334Z,4.60
2022-12-31T20:40:55.589Z,5.40
2022-12-31T20:43:21.961Z,4.82
2022-12-31T20:45:48.576Z,7.85
2022-12-31T20:48:14.868Z,5.60
2022-12-31T20:50:41.218Z,5.07
2022-12-31T20:53:07.484Z,5.38
2022-12-31T20:55:36.807Z,5.38
2022-12-31T20:58:04.154Z,5.95
2022-12-31T21:00:30.595Z,5.60
2022-12-31T21:03:08.251Z,5.05
2022-12-31T21:05:46.892Z,4.70
2022-12-31T21:08:13.323Z,6.35
2022-12-31T21:10:39.569Z,23.60
2022-12-31T21:13:05.848Z,4.95
2022-12-31T21:15:32.171Z,7.30
2022-12-31T21:18:00.030Z,6.93
2022-12-31T21:20:26.838Z,7.25
2022-12-31T21:22:53.129Z,5.25
2022-12-31T21:25:19.557Z,7.32
2022-12-31T21:27:45.861Z,5.30
2022-12-31T21:30:20.145Z,5.00
2022-12-31T21:32:47.188Z,4.90
2022-12-31T21:38:04.258Z,6.13
2022-12-31T21:40:31.386Z,4.88
2022-12-31T21:42:57.708Z,14.15
2022-12-31T21:45:24.222Z,10.30
2022-12-31T21:48:09.200Z,7.25
2022-12-31T21:50:35.657Z,5.65
2022-12-31T21:53:01.954Z,5.43
2022-12-31T21:55:46.888Z,5.57
2022-12-31T21:58:25.664Z,4.95
2022-12-31T22:01:11.330Z,11.38
2022-12-31T22:03:37.917Z,5.05
2022-12-31T22:06:14.604Z,13.63
2022-12-31T22:08:41.750Z,6.10
2022-12-31T22:11:08.509Z,43.75
2022-12-31T22:13:35.505Z,6.28
2022-12-31T22:16:05.637Z,9.65
2022-12-31T22:18:34.907Z,5.80
2022-12-31T22:21:13.757Z,9.18
2022-12-31T22:23:42.404Z,8.13
2022-12-31T22:26:10.518Z,8.48
2022-12-31T22:28:39.749Z,4.43
2022-12-31T22:31:06.947Z,10.68
2022-12-31T22:33:33.268Z,5.10
2022-12-31T22:36:04.062Z,6.65
2022-12-31T22:38:30.687Z,4.45
2022-12-31T22:41:05.170Z,8.93
2022-12-31T22:43:32.408Z,3.97
2022-12-31T22:45:58.692Z,4.57
2022-12-31T22:48:24.927Z,7.15
2022-12-31T22:50:54.871Z,5.90
2022-12-31T22:53:21.180Z,6.75
2022-12-31T22:55:47.407Z,4.93
2022-12-31T22:58:13.754Z,5.82
2022-12-31T23:00:41.037Z,5.03
2022-12-31T23:03:07.899Z,14.65
2022-12-31T23:05:34.779Z,22.55
2022-12-31T23:08:05.678Z,32.25
2022-12-31T23:10:55.423Z,36.45
2022-12-31T23:13:43.309Z,58.10
2022-12-31T23:16:32.975Z,61.40
2022-12-31T23:19:18.303Z,125.15
2022-12-31T23:22:03.153Z,41.85
2022-12-31T23:24:29.520Z,23.83
2022-12-31T23:26:56.729Z,19.40
2022-12-31T23:29:23.604Z,25.83
2022-12-31T23:31:50.009Z,54.47
2022-12-31T23:34:16.368Z,25.52
2022-12-31T23:36:42.651Z,24.75
2022-12-31T23:39:09.095Z,16.30
2022-12-31T23:41:35.439Z,33.88
2022-12-31T23:44:01.808Z,24.48
2022-12-31T23:46:28.228Z,13.32
2022-12-31T23:48:54.644Z,13.40
2022-12-31T23:51:21.136Z,13.15
2022-12-31T23:53:47.446Z,17.88
2022-12-31T23:56:22.828Z,18.33
2022-12-31T23:58:53.125Z,16.83
